Time;durP1;ratioP1;P1;durP2;ratioP2;P2;SDS_P1;SDS_P2;PMS_P1;PMS_P2;Temp;Humidity;BMP_temperature;BMP_pressure;BME280_temperature;BME280_humidity;BME280_pressure;Samples;Min_cycle;Max_cycle;Signal;HPM_P1;HPM_P2
2023/07/18 00:00:17;;;;;;;7.32;4.95;;;;;;;21.74;100.00;98896.47;5138532;28;20051;-59
2023/07/18 00:02:44;;;;;;;8.93;4.68;;;;;;;21.69;100.00;98952.81;5138296;27;20200;-60
2023/07/18 00:05:12;;;;;;;6.78;5.53;;;;;;;21.71;100.00;98975.47;5138666;28;20062;-60
2023/07/18 00:07:40;;;;;;;6.43;5.60;;;;;;;21.75;100.00;98973.34;5138009;27;20058;-60
2023/07/18 00:10:06;;;;;;;5.55;5.05;;;;;;;21.80;100.00;99003.50;5138654;28;20290;-60
2023/07/18 00:12:32;;;;;;;7.28;4.93;;;;;;;21.91;100.00;99011.56;5138426;28;20050;-58
2023/07/18 00:15:03;;;;;;;9.48;5.78;;;;;;;21.93;100.00;98998.72;5138259;28;20146;-59
2023/07/18 00:17:29;;;;;;;7.47;5.50;;;;;;;21.78;100.00;99001.16;5138271;28;20047;-59
2023/07/18 00:19:55;;;;;;;6.85;5.00;;;;;;;21.84;100.00;98987.44;5138028;28;20047;-60
2023/07/18 00:22:20;;;;;;;11.27;4.70;;;;;;;21.36;100.00;98978.13;5138225;28;20058;-59
2023/07/18 00:24:47;;;;;;;6.38;4.82;;;;;;;21.14;100.00;98984.25;5137835;28;20047;-58
2023/07/18 00:27:14;;;;;;;6.40;4.90;;;;;;;21.35;100.00;98982.09;5138009;28;20316;-59
2023/07/18 00:29:40;;;;;;;6.35;4.85;;;;;;;21.67;100.00;98952.50;5137915;28;20051;-60
2023/07/18 00:32:07;;;;;;;5.68;5.00;;;;;;;21.64;100.00;98947.81;5138091;27;20317;-60
2023/07/18 00:34:33;;;;;;;5.50;4.75;;;;;;;21.80;100.00;98934.53;5137614;28;20324;-59
2023/07/18 00:36:59;;;;;;;7.18;5.28;;;;;;;21.55;100.00;98928.94;5138100;27;20137;-59
2023/07/18 00:39:25;;;;;;;6.32;4.95;;;;;;;21.53;100.00;98945.34;5137501;27;20053;-59
2023/07/18 00:41:52;;;;;;;6.50;4.80;;;;;;;21.70;100.00;98962.78;5137858;28;20130;-59
2023/07/18 00:44:18;;;;;;;5.72;5.13;;;;;;;21.85;100.00;98925.59;5137858;27;20047;-59
2023/07/18 00:46:43;;;;;;;6.47;4.93;;;;;;;21.76;100.00;98924.69;5137644;27;20051;-60
2023/07/18 00:49:10;;;;;;;5.05;4.53;;;;;;;21.78;100.00;98936.97;5137885;28;20078;-59
2023/07/18 00:51:36;;;;;;;5.32;4.70;;;;;;;21.81;100.00;98927.72;5137615;28;20047;-59
2023/07/18 00:54:02;;;;;;;5.57;4.43;;;;;;;21.92;100.00;98896.66;5137631;27;20100;-60
2023/07/18 00:56:29;;;;;;;7.18;4.43;;;;;;;21.83;100.00;98911.31;5137341;28;20059;-59
2023/07/18 00:58:56;;;;;;;6.07;4.78;;;;;;;21.87;100.00;98874.91;5137673;27;20499;-60
2023/07/18 01:01:22;;;;;;;5.35;4.70;;;;;;;21.95;100.00;98716.38;5137123;27;20158;-60
2023/07/18 01:03:48;;;;;;;7.80;4.65;;;;;;;21.92;100.00;98466.13;5137763;28;20104;-59
2023/07/18 01:06:13;;;;;;;5.18;4.57;;;;;;;21.70;100.00;98410.41;5137146;27;20054;-59
2023/07/18 01:08:40;;;;;;;8.52;4.13;;;;;;;21.62;100.00;98080.78;5137722;28;20316;-59
2023/07/18 01:11:06;;;;;;;8.75;4.13;;;;;;;21.69;100.00;97917.94;5137327;28;20047;-59
2023/07/18 01:13:32;;;;;;;5.93;3.88;;;;;;;21.48;100.00;97895.38;5137392;28;20058;-58
2023/07/18 01:15:59;;;;;;;5.13;3.70;;;;;;;21.47;100.00;97882.69;5137241;28;20051;-59
2023/07/18 01:18:25;;;;;;;6.78;4.03;;;;;;;21.21;100.00;97923.31;5137100;28;20416;-59
2023/07/18 01:20:52;;;;;;;6.20;3.97;;;;;;;21.06;100.00;98029.03;5137485;28;20047;-60
2023/07/18 01:23:20;;;;;;;4.90;3.95;;;;;;;21.14;100.00;98014.34;5137193;28;20337;-60
2023/07/18 01:25:46;;;;;;;4.63;3.63;;;;;;;21.14;100.00;97999.63;5137320;27;20043;-60
2023/07/18 01:28:12;;;;;;;4.93;3.97;;;;;;;21.11;100.00;98034.78;5137118;28;20074;-59
2023/07/18 01:30:38;;;;;;;4.38;3.60;;;;;;;20.81;100.00;98133.94;5137427;28;20120;-60
2023/07/18 01:33:04;;;;;;;3.55;3.20;;;;;;;21.01;100.00;98313.88;5136971;28;20055;-59
2023/07/18 01:35:31;;;;;;;12.10;3.47;;;;;;;20.54;100.00;98596.03;5137458;27;20131;-60
2023/07/18 01:37:58;;;;;;;32.95;7.22;;;;;;;19.91;100.00;99046.16;5136700;27;20055;-59
2023/07/18 01:40:25;;;;;;;7.22;4.40;;;;;;;19.00;100.00;98853.88;5137001;28;20050;-59
2023/07/18 01:42:52;;;;;;;16.67;5.00;;;;;;;18.78;100.00;98852.75;5136901;28;20405;-59
2023/07/18 01:45:19;;;;;;;17.40;5.38;;;;;;;18.42;100.00;98806.25;5136717;28;20045;-61
2023/07/18 01:47:47;;;;;;;7.82;5.22;;;;;;;18.15;100.00;98712.03;5137062;28;20328;-60
2023/07/18 01:50:13;;;;;;;7.18;4.97;;;;;;;17.99;100.00;98662.03;5136898;28;20336;-59
2023/07/18 01:52:39;;;;;;;12.88;5.25;;;;;;;17.98;100.00;98649.38;5137085;28;20313;-60
2023/07/18 01:55:06;;;;;;;5.78;4.30;;;;;;;17.99;100.00;98610.13;5136635;28;20459;-59
2023/07/18 01:57:43;;;;;;;10.55;7.28;;;;;;;18.02;100.00;98589.06;5137059;28;20055;-59
2023/07/18 02:00:10;;;;;;;8.43;4.93;;;;;;;18.26;100.00;98593.31;5136622;28;20051;-59
2023/07/18 02:02:37;;;;;;;12.23;5.00;;;;;;;18.27;100.00;98608.75;5136683;27;20069;-60
2023/07/18 02:05:04;;;;;;;8.30;4.97;;;;;;;18.41;100.00;98627.06;5136488;28;20047;-60
2023/07/18 02:07:30;;;;;;;6.90;5.85;;;;;;;18.45;100.00;98652.75;5136345;27;20429;-60
2023/07/18 02:09:56;;;;;;;11.70;4.45;;;;;;;18.42;100.00;98673.03;5136772;28;20058;-60
2023/07/18 02:12:22;;;;;;;12.05;4.47;;;;;;;18.43;100.00;98674.59;5137017;27;20066;-60
2023/07/18 02:14:48;;;;;;;5.85;4.47;;;;;;;18.57;100.00;98682.63;5140089;28;20047;-59
2023/07/18 02:17:15;;;;;;;9.75;5.15;;;;;;;18.37;100.00;98670.78;5140147;28;20382;-59
2023/07/18 02:19:41;;;;;;;9.05;4.80;;;;;;;18.58;100.00;98648.06;5140227;27;20058;-59
2023/07/18 02:22:07;;;;;;;11.35;4.63;;;;;;;18.31;100.00;98630.84;5139841;28;20043;-59
2023/07/18 02:24:33;;;;;;;8.93;5.65;;;;;;;18.37;100.00;98625.59;5140215;28;20137;-60
2023/07/18 02:26:59;;;;;;;5.85;5.05;;;;;;;18.25;100.00;98619.47;5139779;27;20051;-59
2023/07/18 02:29:25;;;;;;;5.95;4.25;;;;;;;18.18;100.00;98616.09;5140184;28;20368;-59
2023/07/18 02:31:52;;;;;;;11.55;4.50;;;;;;;18.32;100.00;98622.09;5139738;28;20416;-60
2023/07/18 02:34:18;;;;;;;9.43;4.20;;;;;;;18.16;100.00;98604.63;5140140;28;20043;-59
2023/07/18 02:36:45;;;;;;;7.30;4.18;;;;;;;18.31;100.00;98617.00;5139882;27;20051;-60
2023/07/18 02:39:11;;;;;;;5.22;4.15;;;;;;;18.15;100.00;98606.63;5139816;28;20078;-59
2023/07/18 02:41:37;;;;;;;8.80;4.45;;;;;;;18.15;100.00;98589.97;5139856;28;20043;-59
2023/07/18 02:44:04;;;;;;;9.25;6.07;;;;;;;18.03;100.00;98576.78;5139681;28;20090;-60
2023/07/18 02:46:30;;;;;;;6.93;4.13;;;;;;;17.83;100.00;98566.50;5139596;28;20413;-60
2023/07/18 02:48:57;;;;;;;5.43;3.67;;;;;;;18.21;100.00;98568.84;5139384;28;20431;-60
2023/07/18 02:51:23;;;;;;;7.75;4.88;;;;;;;18.30;100.00;98577.38;5139831;27;20065;-59
2023/07/18 02:53:50;;;;;;;6.20;4.57;;;;;;;18.43;100.00;98574.69;5139383;27;20141;-60
2023/07/18 02:56:16;;;;;;;7.07;5.93;;;;;;;18.25;100.00;98594.50;5139958;28;20137;-59
2023/07/18 02:58:42;;;;;;;7.13;4.10;;;;;;;18.08;100.00;98595.69;5139298;28;20094;-60
2023/07/18 03:01:08;;;;;;;10.80;4.78;;;;;;;18.10;100.00;98591.28;5139656;27;20043;-59
2023/07/18 03:03:34;;;;;;;7.13;4.63;;;;;;;18.09;100.00;98594.47;5138705;27;20164;-60
2023/07/18 03:06:03;;;;;;;7.10;5.35;;;;;;;18.18;100.00;98586.34;5139316;27;20059;-60
2023/07/18 03:08:29;;;;;;;7.07;6.38;;;;;;;17.99;100.00;98587.94;5139476;28;20078;-59
2023/07/18 03:10:55;;;;;;;5.38;4.80;;;;;;;18.06;100.00;98589.78;5138978;28;20051;-61
2023/07/18 03:13:21;;;;;;;5.18;4.68;;;;;;;17.84;100.00;98584.69;5139438;28;20138;-61
2023/07/18 03:15:47;;;;;;;12.20;5.30;;;;;;;17.96;100.00;98571.38;5139149;28;20146;-60
2023/07/18 03:18:13;;;;;;;5.07;4.57;;;;;;;18.08;100.00;98579.81;5139284;28;20051;-59
2023/07/18 03:20:39;;;;;;;8.45;5.05;;;;;;;17.82;100.00;98576.00;5139047;28;20047;-59
2023/07/18 03:23:06;;;;;;;8.35;7.55;;;;;;;17.86;100.00;98562.88;5139357;28;20208;-60
2023/07/18 03:25:32;;;;;;;6.30;4.90;;;;;;;18.09;100.00;98561.19;5137494;27;20427;-59
2023/07/18 03:27:58;;;;;;;7.75;6.50;;;;;;;18.22;100.00;98561.31;5139244;28;20126;-59
2023/07/18 03:30:24;;;;;;;6.35;4.32;;;;;;;18.13;100.00;98548.03;5138717;28;20413;-60
2023/07/18 03:32:50;;;;;;;9.45;4.20;;;;;;;18.24;100.00;98556.88;5139217;27;20095;-61
2023/07/18 03:35:16;;;;;;;8.48;6.57;;;;;;;18.44;100.00;98570.69;5138740;28;20404;-59
2023/07/18 03:37:42;;;;;;;7.30;4.93;;;;;;;18.56;100.00;98583.13;5138614;27;20051;-60
2023/07/18 03:40:11;;;;;;;6.63;6.00;;;;;;;18.41;100.00;98593.75;5138716;28;20047;-60
2023/07/18 03:42:37;;;;;;;5.85;4.57;;;;;;;18.71;100.00;98617.66;5138503;28;20500;-60
2023/07/18 03:45:04;;;;;;;5.22;3.92;;;;;;;18.93;100.00;98633.84;5138735;27;20484;-60
2023/07/18 03:47:31;;;;;;;5.95;5.18;;;;;;;19.45;100.00;98677.38;5138534;27;20051;-61
2023/07/18 03:49:57;;;;;;;3.97;3.03;;;;;;;19.42;100.00;98795.00;5138776;28;20419;-59
2023/07/18 03:52:23;;;;;;;4.25;3.20;;;;;;;18.91;100.00;98850.13;5138478;28;20115;-60
2023/07/18 03:54:49;;;;;;;5.72;3.40;;;;;;;18.77;100.00;98865.88;5138403;28;20417;-60
2023/07/18 03:57:15;;;;;;;6.65;4.05;;;;;;;19.30;100.00;98874.28;5138352;28;20051;-59
2023/07/18 03:59:41;;;;;;;5.70;3.13;;;;;;;18.96;100.00;98875.41;5138841;27;20047;-60
2023/07/18 04:02:07;;;;;;;4.03;3.20;;;;;;;19.04;100.00;98851.81;5138456;28;20047;-60
2023/07/18 04:04:33;;;;;;;5.63;3.70;;;;;;;18.90;100.00;98787.47;5138421;28;20047;-59
2023/07/18 04:06:59;;;;;;;5.70;4.22;;;;;;;18.54;100.00;98777.84;5138346;27;20082;-59
2023/07/18 04:09:25;;;;;;;5.38;3.45;;;;;;;18.58;100.00;98800.75;5138085;28;20415;-59
2023/07/18 04:11:51;;;;;;;4.05;3.45;;;;;;;18.86;100.00;98818.09;5138216;28;20047;-59
2023/07/18 04:14:17;;;;;;;3.92;3.53;;;;;;;18.84;100.00;98822.50;5138257;27;20086;-58
2023/07/18 04:16:43;;;;;;;5.82;4.90;;;;;;;18.88;100.00;98776.75;5138300;28;20192;-59
2023/07/18 04:19:09;;;;;;;6.10;4.10;;;;;;;18.77;100.00;98785.34;5137920;28;20050;-59
2023/07/18 04:21:35;;;;;;;4.60;3.30;;;;;;;18.84;100.00;98814.94;5138360;28;20043;-59
2023/07/18 04:24:01;;;;;;;4.15;3.70;;;;;;;18.96;100.00;98866.28;5137880;28;20051;-60
2023/07/18 04:26:27;;;;;;;5.47;3.33;;;;;;;19.03;100.00;98888.38;5138265;28;20047;-60
2023/07/18 04:28:53;;;;;;;10.30;3.70;;;;;;;19.00;100.00;98836.44;5137865;28;20137;-60
2023/07/18 04:31:20;;;;;;;5.05;3.78;;;;;;;19.05;100.00;98799.81;5138222;27;20043;-60
2023/07/18 04:33:47;;;;;;;6.25;4.57;;;;;;;19.02;100.00;98784.00;5137758;28;20065;-61
2023/07/18 04:36:13;;;;;;;7.03;3.83;;;;;;;19.06;100.00;98770.81;5137517;27;20058;-60
2023/07/18 04:38:39;;;;;;;8.15;4.65;;;;;;;19.04;100.00;98757.34;5137925;28;20051;-60
2023/07/18 04:41:05;;;;;;;5.43;4.68;;;;;;;19.16;100.00;98741.22;5137430;28;20422;-59
2023/07/18 04:43:31;;;;;;;5.38;4.47;;;;;;;18.86;100.00;98757.00;5137696;28;20053;-60
2023/07/18 04:45:57;;;;;;;5.70;4.30;;;;;;;19.37;100.00;98759.38;5137547;28;20051;-60
2023/07/18 04:48:23;;;;;;;9.15;5.00;;;;;;;19.56;100.00;98777.97;5137851;28;20053;-60
2023/07/18 04:50:57;;;;;;;7.07;4.30;;;;;;;19.65;100.00;98794.84;5137543;28;20138;-60
2023/07/18 04:53:23;;;;;;;4.35;3.88;;;;;;;19.81;100.00;98801.63;5137812;28;20396;-59
2023/07/18 04:55:51;;;;;;;5.25;3.75;;;;;;;20.01;100.00;98827.31;5137325;28;20111;-58
2023/07/18 04:58:17;;;;;;;5.75;4.80;;;;;;;20.25;100.00;98877.22;5137793;28;20373;-60
2023/07/18 05:00:43;;;;;;;6.60;4.47;;;;;;;20.59;100.00;98890.66;5137571;28;20076;-59
2023/07/18 05:03:09;;;;;;;5.53;4.57;;;;;;;20.59;100.00;98912.94;5137193;28;20389;-59
2023/07/18 05:05:35;;;;;;;10.18;4.88;;;;;;;20.62;100.00;98904.47;5137508;28;20050;-59
2023/07/18 05:08:03;;;;;;;6.53;5.05;;;;;;;20.65;100.00;98894.47;5137272;27;20142;-59
2023/07/18 05:10:29;;;;;;;6.65;4.88;;;;;;;20.44;100.00;98885.44;5137115;27;20043;-59
2023/07/18 05:12:57;;;;;;;7.20;6.07;;;;;;;20.55;100.00;98892.75;5137033;27;20485;-61
2023/07/18 05:15:23;;;;;;;10.38;6.70;;;;;;;20.52;100.00;98893.63;5137529;28;20383;-60
2023/07/18 05:17:50;;;;;;;11.98;8.15;;;;;;;20.46;100.00;98879.44;5137151;28;20225;-60
2023/07/18 05:20:16;;;;;;;10.50;6.22;;;;;;;20.55;100.00;98874.03;5137531;28;20043;-60
2023/07/18 05:22:44;;;;;;;11.75;6.55;;;;;;;20.58;100.00;98887.09;5137127;27;20069;-60
2023/07/18 05:25:11;;;;;;;11.48;6.50;;;;;;;20.75;100.00;98871.09;5137493;27;20057;-60
2023/07/18 05:27:38;;;;;;;12.20;7.03;;;;;;;20.69;100.00;98892.34;5136905;28;20047;-59
2023/07/18 05:30:10;;;;;;;12.18;7.28;;;;;;;20.61;100.00;98902.13;5137122;27;20062;-60
2023/07/18 05:32:36;;;;;;;12.48;7.03;;;;;;;20.69;100.00;98897.94;5136908;28;20051;-60
2023/07/18 05:35:02;;;;;;;10.32;7.60;;;;;;;20.63;100.00;98875.41;5136622;28;20051;-58
2023/07/18 05:37:30;;;;;;;12.70;8.18;;;;;;;20.57;100.00;98860.47;5136903;27;20055;-57
2023/07/18 05:39:57;;;;;;;10.82;7.95;;;;;;;20.57;100.00;98865.25;5134890;28;20485;-58
2023/07/18 05:42:23;;;;;;;11.77;8.27;;;;;;;20.58;100.00;98850.88;5136732;28;20055;-56
2023/07/18 05:44:49;;;;;;;13.35;8.80;;;;;;;20.54;100.00;98847.41;5137144;27;20138;-59
2023/07/18 05:47:15;;;;;;;14.25;7.68;;;;;;;20.21;100.00;98841.91;5136887;27;20058;-59
2023/07/18 05:49:41;;;;;;;15.32;9.43;;;;;;;20.12;100.00;98807.56;5140825;28;20127;-59
2023/07/18 05:52:07;;;;;;;10.57;7.72;;;;;;;20.04;100.00;98826.47;5140347;28;20059;-57
2023/07/18 05:54:33;;;;;;;16.30;7.50;;;;;;;20.21;100.00;98858.59;5140656;28;20138;-56
2023/07/18 05:57:00;;;;;;;24.83;11.95;;;;;;;19.59;100.00;98729.81;5140477;28;20115;-59
2023/07/18 05:59:26;;;;;;;29.35;10.60;;;;;;;18.75;100.00;98495.41;5140393;28;20108;-61
2023/07/18 06:01:52;;;;;;;27.88;9.60;;;;;;;18.07;100.00;98506.16;5140386;28;20062;-62
2023/07/18 06:04:18;;;;;;;11.63;7.25;;;;;;;17.71;100.00;98395.25;5140188;28;20055;-63
2023/07/18 06:06:44;;;;;;;28.70;7.57;;;;;;;17.64;100.00;98398.19;5140237;27;20055;-61
2023/07/18 06:09:11;;;;;;;11.55;6.97;;;;;;;17.63;100.00;98424.34;5139957;27;20468;-61
2023/07/18 06:11:37;;;;;;;7.60;4.88;;;;;;;17.37;100.00;98451.81;5140261;28;20134;-61
2023/07/18 06:14:05;;;;;;;10.70;6.72;;;;;;;17.11;100.00;98450.75;5139999;28;20385;-61
2023/07/18 06:16:31;;;;;;;14.88;6.45;;;;;;;16.96;100.00;98454.22;5140277;28;20051;-62
2023/07/18 06:18:57;;;;;;;14.43;5.53;;;;;;;16.71;100.00;98459.00;5139805;28;20078;-63
2023/07/18 06:21:26;;;;;;;6.75;4.88;;;;;;;16.54;100.00;98489.75;5140168;28;20107;-63
2023/07/18 06:23:52;;;;;;;12.45;5.00;;;;;;;16.54;100.00;98501.59;5139584;28;20054;-61
2023/07/18 06:26:18;;;;;;;6.25;3.80;;;;;;;16.26;100.00;98524.19;5139712;28;20143;-60
2023/07/18 06:28:44;;;;;;;5.03;2.55;;;;;;;16.11;100.00;98545.75;5139892;28;20405;-61
2023/07/18 06:31:10;;;;;;;5.07;2.30;;;;;;;16.00;100.00;98581.84;5139510;28;20491;-63
2023/07/18 06:33:37;;;;;;;5.45;2.97;;;;;;;16.04;100.00;98620.50;5139909;27;20053;-61
2023/07/18 06:36:03;;;;;;;8.65;2.10;;;;;;;15.81;100.00;98668.16;5139459;27;20047;-62
2023/07/18 06:38:29;;;;;;;6.30;1.75;;;;;;;15.77;100.00;98677.28;5139564;27;20150;-62
2023/07/18 06:40:55;;;;;;;6.78;2.20;;;;;;;15.73;100.00;98690.34;5139301;28;20103;-61
2023/07/18 06:43:21;;;;;;;2.92;2.40;;;;;;;15.81;100.00;98704.88;5139839;27;20137;-60
2023/07/18 06:45:48;;;;;;;2.88;2.08;;;;;;;15.56;100.00;98710.63;5139268;28;20468;-62
2023/07/18 06:48:14;;;;;;;2.33;1.77;;;;;;;15.77;100.00;98723.47;5139586;27;20376;-61
2023/07/18 06:50:44;;;;;;;6.57;2.53;;;;;;;15.71;100.00;98731.41;5139215;28;20051;-61
2023/07/18 06:53:10;;;;;;;2.65;1.77;;;;;;;15.90;100.00;98721.75;5139356;28;20059;-61
2023/07/18 06:55:36;;;;;;;4.35;3.30;;;;;;;15.96;100.00;98727.59;5139118;27;20529;-62
2023/07/18 06:58:02;;;;;;;4.60;2.33;;;;;;;16.18;100.00;98751.06;5138669;27;20108;-62
2023/07/18 07:00:28;;;;;;;4.43;1.90;;;;;;;16.37;100.00;98773.78;5139264;28;20104;-62
2023/07/18 07:02:54;;;;;;;3.72;2.80;;;;;;;16.56;100.00;98745.50;5138937;27;20384;-60
2023/07/18 07:05:21;;;;;;;4.55;2.28;;;;;;;16.62;100.00;98752.09;5139372;28;20058;-62
2023/07/18 07:07:49;;;;;;;5.45;1.92;;;;;;;16.66;100.00;98790.78;5138698;27;20523;-62
2023/07/18 07:10:15;;;;;;;10.75;2.15;;;;;;;16.89;100.00;98802.03;5139188;28;20349;-60
2023/07/18 07:12:41;;;;;;;3.45;2.17;;;;;;;17.01;100.00;98806.19;5138895;27;20332;-63
2023/07/18 07:15:08;;;;;;;6.70;3.22;;;;;;;17.08;100.00;98825.47;5139157;27;20047;-62
2023/07/18 07:17:33;;;;;;;3.42;2.80;;;;;;;16.95;100.00;98841.09;5138726;28;20047;-61
2023/07/18 07:20:00;;;;;;;7.50;2.40;;;;;;;16.83;100.00;98853.50;5139259;28;20312;-61
2023/07/18 07:22:27;;;;;;;3.83;2.20;;;;;;;16.87;100.00;98886.69;5139003;27;20051;-60
2023/07/18 07:24:54;;;;;;;3.20;1.98;;;;;;;17.05;100.00;98905.84;5139022;27;20076;-62
2023/07/18 07:27:20;;;;;;;3.47;3.17;;;;;;;17.21;100.00;98897.72;5138541;28;20062;-63
2023/07/18 07:29:46;;;;;;;3.38;2.80;;;;;;;17.75;100.00;98916.34;5138792;28;20050;-60
2023/07/18 07:32:12;;;;;;;2.53;2.33;;;;;;;18.81;100.00;98926.88;5138721;28;20051;-61
2023/07/18 07:34:37;;;;;;;2.65;1.80;;;;;;;19.23;100.00;99025.28;5138449;28;20078;-61
2023/07/18 07:37:04;;;;;;;3.67;2.47;;;;;;;19.64;100.00;99023.31;5138666;27;20085;-61
2023/07/18 07:39:30;;;;;;;5.63;1.90;;;;;;;19.96;100.00;99011.50;5138576;28;20059;-62
2023/07/18 07:41:56;;;;;;;2.10;1.90;;;;;;;19.97;100.00;98969.31;5138839;28;20081;-61
2023/07/18 07:44:23;;;;;;;2.38;2.17;;;;;;;20.33;100.00;98920.34;5138367;28;20047;-62
2023/07/18 07:46:49;;;;;;;4.55;2.70;;;;;;;20.56;100.00;98816.34;5138726;27;20136;-60
2023/07/18 07:49:15;;;;;;;3.00;2.70;;;;;;;21.21;100.00;98759.47;5138368;28;20051;-64
2023/07/18 07:51:41;;;;;;;5.55;2.97;;;;;;;21.14;100.00;98570.97;5138057;28;20051;-63
2023/07/18 07:54:07;;;;;;;3.15;2.63;;;;;;;21.48;100.00;98326.81;5138343;28;20154;-61
2023/07/18 07:56:33;;;;;;;4.25;2.78;;;;;;;22.39;100.00;98051.81;5138161;28;20138;-58
2023/07/18 07:58:59;;;;;;;2.90;2.25;;;;;;;22.90;100.00;97878.44;5138162;28;20130;-60
2023/07/18 08:01:25;;;;;;;3.78;2.50;;;;;;;23.16;100.00;97568.41;5138043;28;20047;-60
2023/07/18 08:03:51;;;;;;;2.58;2.38;;;;;;;23.70;100.00;97528.88;5138232;28;20381;-60
2023/07/18 08:06:17;;;;;;;3.95;2.40;;;;;;;23.88;100.00;97530.56;5137924;27;20134;-61
2023/07/18 08:08:43;;;;;;;2.28;2.08;;;;;;;24.24;100.00;97556.31;5138363;28;20043;-60
2023/07/18 08:11:09;;;;;;;3.28;1.85;;;;;;;23.93;100.00;97553.00;5137288;27;20043;-55
2023/07/18 08:13:36;;;;;;;3.72;2.10;;;;;;;24.27;100.00;97640.09;5138324;27;20308;-59
2023/07/18 08:16:01;;;;;;;2.88;2.15;;;;;;;24.52;100.00;97649.75;5137799;28;20621;-59
2023/07/18 08:18:27;;;;;;;2.45;1.90;;;;;;;24.56;100.00;97627.91;5138329;27;20047;-59
2023/07/18 08:20:53;;;;;;;3.25;2.60;;;;;;;23.71;100.00;97547.19;5137712;28;20082;-62
2023/07/18 08:23:19;;;;;;;3.25;2.40;;;;;;;23.85;100.00;97556.72;5137707;28;20079;-64
2023/07/18 08:25:45;;;;;;;2.63;2.42;;;;;;;23.03;100.00;97573.56;5137605;28;20146;-62
2023/07/18 08:28:11;;;;;;;2.80;2.47;;;;;;;23.09;100.00;97574.41;5137702;28;20208;-64
2023/07/18 08:30:40;;;;;;;3.05;1.88;;;;;;;22.72;100.00;97560.91;5137847;27;20133;-61
2023/07/18 08:33:06;;;;;;;4.55;2.83;;;;;;;22.53;100.00;97526.88;5137709;28;20047;-60
2023/07/18 08:35:31;;;;;;;3.20;2.47;;;;;;;22.04;100.00;97539.53;5137445;27;20543;-60
2023/07/18 08:37:57;;;;;;;3.38;2.40;;;;;;;22.03;100.00;97543.56;5137665;27;20137;-62
2023/07/18 08:40:23;;;;;;;3.00;2.58;;;;;;;21.55;100.00;97802.25;5137780;28;20096;-62
2023/07/18 08:42:51;;;;;;;4.97;3.30;;;;;;;21.32;100.00;97812.84;5137446;27;20053;-62
2023/07/18 08:45:18;;;;;;;2.85;2.58;;;;;;;20.95;100.00;97647.84;5137819;28;20202;-62
2023/07/18 08:47:47;;;;;;;5.88;2.85;;;;;;;20.47;100.00;97784.09;5137313;28;20118;-62
2023/07/18 08:50:13;;;;;;;6.05;3.22;;;;;;;20.40;100.00;97845.66;5137583;28;20146;-61
2023/07/18 08:52:39;;;;;;;3.25;2.65;;;;;;;20.60;100.00;97915.59;5137527;28;20047;-60
2023/07/18 08:55:06;;;;;;;4.25;3.00;;;;;;;20.75;100.00;97931.69;5137476;28;20423;-61
2023/07/18 08:57:32;;;;;;;3.80;3.20;;;;;;;20.54;100.00;97930.59;5137379;28;20055;-64
2023/07/18 08:59:59;;;;;;;3.05;2.75;;;;;;;20.57;100.00;97952.72;5137396;27;20047;-58
2023/07/18 09:02:25;;;;;;;4.55;3.40;;;;;;;20.43;100.00;97839.91;5137518;28;20188;-62
2023/07/18 09:04:52;;;;;;;3.63;3.33;;;;;;;20.76;100.00;97941.56;5137381;28;20051;-64
2023/07/18 09:07:19;;;;;;;4.28;3.08;;;;;;;20.83;100.00;97808.38;5137508;27;20047;-62
2023/07/18 09:09:47;;;;;;;5.55;3.33;;;;;;;20.46;100.00;97751.94;5137244;28;20047;-62
2023/07/18 09:12:14;;;;;;;8.55;3.28;;;;;;;20.48;100.00;97754.25;5137437;27;20416;-62
2023/07/18 09:14:40;;;;;;;8.13;3.80;;;;;;;20.31;100.00;97887.38;5137039;28;20490;-63
2023/07/18 09:17:07;;;;;;;6.55;3.03;;;;;;;20.95;100.00;97926.41;5136792;27;20055;-63
2023/07/18 09:19:38;;;;;;;3.90;2.63;;;;;;;22.04;100.00;97645.56;5136882;28;20134;-60
2023/07/18 09:22:06;;;;;;;4.90;2.97;;;;;;;22.25;100.00;97550.78;5138298;27;20138;-65
2023/07/18 09:24:35;;;;;;;5.00;2.72;;;;;;;22.65;100.00;97574.50;5140682;28;20082;-63
2023/07/18 09:27:01;;;;;;;4.32;2.53;;;;;;;23.32;100.00;97717.28;5140624;28;20089;-66
2023/07/18 09:29:27;;;;;;;8.27;2.50;;;;;;;23.30;100.00;97775.72;5141016;27;20054;-62
2023/07/18 09:31:54;;;;;;;5.78;3.60;;;;;;;23.91;100.00;97792.63;5140400;28;20051;-61
2023/07/18 09:34:20;;;;;;;5.15;3.40;;;;;;;24.47;100.00;97911.00;5140849;28;20055;-60
2023/07/18 09:36:54;;;;;;;7.28;3.78;;;;;;;24.50;100.00;97973.69;5140517;27;20111;-60
2023/07/18 09:39:23;;;;;;;5.70;3.45;;;;;;;23.87;100.00;97976.78;5140788;28;20047;-62
2023/07/18 09:41:50;;;;;;;5.20;3.15;;;;;;;23.53;100.00;97844.72;5140299;28;20137;-62
2023/07/18 09:44:16;;;;;;;4.90;3.20;;;;;;;23.35;100.00;97786.22;5140676;27;20057;-61
2023/07/18 09:46:43;;;;;;;4.43;2.50;;;;;;;23.17;100.00;97810.34;5140664;27;20047;-62
2023/07/18 09:49:09;;;;;;;3.83;2.88;;;;;;;23.13;100.00;97778.25;5140567;28;20051;-62
2023/07/18 09:51:37;;;;;;;3.92;2.35;;;;;;;22.79;100.00;97783.22;5140583;28;20051;-62
2023/07/18 09:54:05;;;;;;;9.27;3.03;;;;;;;23.22;100.00;97798.47;5140229;28;20051;-62
2023/07/18 09:56:34;;;;;;;3.85;2.25;;;;;;;22.95;100.00;97855.44;5140377;28;20478;-63
2023/07/18 09:59:05;;;;;;;4.07;2.50;;;;;;;23.35;100.00;97828.91;5140170;28;20087;-63
2023/07/18 10:01:32;;;;;;;6.03;3.50;;;;;;;24.00;100.00;97968.88;5140363;27;20066;-63
2023/07/18 10:03:58;;;;;;;7.45;3.55;;;;;;;24.50;100.00;98010.88;5140071;27;20043;-62
2023/07/18 10:06:24;;;;;;;4.82;3.08;;;;;;;24.68;100.00;98029.47;5140306;27;20365;-63
2023/07/18 10:08:52;;;;;;;4.82;2.25;;;;;;;24.09;100.00;98035.94;5139852;27;20138;-62
2023/07/18 10:11:18;;;;;;;8.68;2.45;;;;;;;23.78;100.00;98055.25;5139932;28;20071;-63
2023/07/18 10:14:12;;;;;;;5.22;3.10;;;;;;;23.44;100.00;97996.63;5140311;27;20415;-64
2023/07/18 10:16:42;;;;;;;9.35;2.60;;;;;;;23.04;100.00;98038.28;5139892;28;20062;-63
2023/07/18 10:19:17;;;;;;;4.90;2.30;;;;;;;22.78;100.00;98030.34;5140181;28;20108;-63
2023/07/18 10:21:45;;;;;;;4.43;2.85;;;;;;;22.01;100.00;98090.19;5139826;27;20075;-63
2023/07/18 10:24:28;;;;;;;6.00;1.52;;;;;;;21.92;100.00;98084.63;5140143;27;20469;-63
2023/07/18 10:26:58;;;;;;;5.10;1.73;;;;;;;21.94;100.00;98028.38;5139554;27;20099;-63
2023/07/18 10:29:29;;;;;;;2.53;2.10;;;;;;;21.21;100.00;98037.56;5139983;28;20055;-63
2023/07/18 10:31:55;;;;;;;4.15;2.10;;;;;;;21.48;100.00;97976.25;5139943;28;20047;-64
2023/07/18 10:34:21;;;;;;;6.85;2.75;;;;;;;21.48;100.00;98045.19;5139005;27;20051;-63
2023/07/18 10:36:55;;;;;;;4.15;1.60;;;;;;;21.61;100.00;98101.56;5139674;27;20054;-64
2023/07/18 10:39:37;;;;;;;4.53;2.25;;;;;;;21.67;100.00;98115.66;5139453;28;20162;-63
2023/07/18 10:42:06;;;;;;;4.55;2.10;;;;;;;21.66;100.00;98049.94;5139944;27;20331;-63
2023/07/18 10:44:33;;;;;;;4.30;1.90;;;;;;;22.18;100.00;98087.09;5139496;27;20139;-61
2023/07/18 10:46:59;;;;;;;8.63;1.83;;;;;;;21.41;100.00;98174.50;5139827;27;20047;-62
2023/07/18 10:49:25;;;;;;;13.90;1.90;;;;;;;20.85;100.00;98142.91;5139320;27;20365;-62
2023/07/18 10:51:54;;;;;;;2.88;1.10;;;;;;;20.45;100.00;98293.19;5139313;28;20051;-62
2023/07/18 10:54:20;;;;;;;1.05;1.05;;;;;;;19.52;100.00;98126.75;5139247;27;20150;-63
2023/07/18 10:56:48;;;;;;;4.13;0.98;;;;;;;18.77;100.00;97869.06;5139355;28;20134;-63
2023/07/18 10:59:14;;;;;;;0.93;0.93;;;;;;;17.87;100.00;97779.03;5139458;28;20051;-63
2023/07/18 11:01:41;;;;;;;1.13;1.10;;;;;;;17.21;100.00;97947.69;5139244;28;20334;-64
2023/07/18 11:04:07;;;;;;;2.80;1.38;;;;;;;17.16;100.00;98371.94;5139508;28;20051;-63
2023/07/18 11:06:33;;;;;;;5.97;1.88;;;;;;;16.75;100.00;98478.34;5139009;27;20306;-63
2023/07/18 11:08:59;;;;;;;3.42;1.77;;;;;;;16.40;100.00;98491.56;5139007;28;20427;-63
2023/07/18 11:11:25;;;;;;;4.25;1.63;;;;;;;16.08;100.00;98575.00;5138986;28;20047;-64
2023/07/18 11:13:51;;;;;;;6.65;1.50;;;;;;;16.17;100.00;98688.66;5139305;28;20396;-63
2023/07/18 11:16:17;;;;;;;6.80;1.80;;;;;;;16.21;100.00;98794.50;5138811;27;20053;-64
2023/07/18 11:18:46;;;;;;;8.38;2.10;;;;;;;16.10;100.00;98970.03;5139187;27;20051;-64
2023/07/18 11:21:13;;;;;;;3.65;1.40;;;;;;;16.09;100.00;99099.19;5138723;28;20136;-64